Medicare First Aid — 2ECD6 — position and weather

sailwx.info

Track history (hours):
 
Tides and Currents Weather Stations Pressure Air Temp Water Temp Dewpoint Dewpoint Depression Visibility Wind Speed Wind Dir Waves Ship Positions

Medicare First Aid

Last reported at 2017-Sep-06 10:54 UTC. Time now 2017-Nov-24 15:11 UTC.
Position N 47°33' W 002°54'.
Warning: this ship's position is months out of date.

Length 12 m.

Type: Sailing vessel. MMSI: 235083873.

Date/timePositionNaut miles runAvg speedWind from/ knotsBaromVisibWave heightAir tempDewpointWater temp
2017-Sep-06 10:54N 47°33' W 002°54'2 4.0
2017-Sep-06 10:30N 47°32' W 002°55'2 4.1
2017-Sep-06 10:00N 47°31' W 002°58'2 3.4
2017-Sep-06 09:30N 47°32' W 002°60'3 6.1
2017-Sep-06 09:00N 47°29' W 002°59'3 7.1
2017-Sep-06 08:30N 47°32' W 002°55'  
2017-Aug-30 16:40N 47°33' W 002°54'0 0.0
2017-Aug-30 16:10N 47°33' W 002°54'0 1.8
2017-Aug-30 15:56N 47°32' W 002°54'2 3.7
2017-Aug-30 15:30N 47°34' W 002°54'3 4.6
2017-Aug-30 14:51N 47°36' W 002°51'0 0.0
2017-Aug-30 14:30N 47°36' W 002°51'2 4.2
2017-Aug-30 14:00N 47°35' W 002°53'1 2.9
2017-Aug-30 13:30N 47°34' W 002°55'1 2.9
2017-Aug-30 12:59N 47°32' W 002°56'3 6.6
2017-Aug-30 12:29N 47°30' W 002°59'3 6.3
2017-Aug-30 12:00N 47°28' W 003°02'2 4.4
2017-Aug-30 11:29N 47°28' W 003°05'2 3.6
2017-Aug-30 11:00N 47°28' W 003°08'2 4.2
2017-Aug-30 10:30N 47°29' W 003°11'2 3.1
2017-Aug-30 10:00N 47°30' W 003°11'2 4.5
2017-Aug-30 09:30N 47°32' W 003°14'2 4.9
2017-Aug-30 09:00N 47°34' W 003°16'3 5.4
2017-Aug-30 08:30N 47°36' W 003°19'3 5.1
2017-Aug-30 08:00N 47°37' W 003°22'3 5.3
2017-Aug-30 07:30N 47°39' W 003°25'1 0.1
2017-Aug-29 20:07N 47°39' W 003°27'0 0.0
2017-Aug-29 19:58N 47°39' W 003°27'0 0.0
2017-Aug-29 19:28N 47°39' W 003°27'0 0.0
2017-Aug-29 18:58N 47°39' W 003°27'0 0.0
2017-Aug-29 18:22N 47°39' W 003°27'0 0.0
2017-Aug-29 17:58N 47°39' W 003°27'0 0.0
2017-Aug-28 13:32N 47°39' W 003°27'0 0.1
2017-Aug-28 13:29N 47°39' W 003°27'1 1.7
2017-Aug-28 13:00N 47°39' W 003°26'2 3.1
2017-Aug-28 12:30N 47°38' W 003°25'1 1.5
2017-Aug-28 11:58N 47°37' W 003°25'1 1.2
2017-Aug-28 11:28N 47°36' W 003°24'0 1.1
2017-Aug-28 11:00N 47°36' W 003°24'2 4.4
2017-Aug-28 10:30N 47°34' W 003°25'1 1.2
2017-Aug-28 09:59N 47°33' W 003°25'0 1.0
2017-Aug-28 09:30N 47°33' W 003°25'1 2.8
2017-Aug-28 09:00N 47°31' W 003°26'2 4.2
2017-Aug-28 08:30N 47°30' W 003°24'3 5.1
2017-Aug-28 08:00N 47°28' W 003°21'3 5.8
2017-Aug-28 07:29N 47°26' W 003°18'3 5.0
2017-Aug-28 06:59N 47°24' W 003°15'2 3.0
2017-Aug-28 06:20N 47°23' W 003°13'  
Track history (hours):
 
Tides and Currents Weather Stations Pressure Air Temp Water Temp Dewpoint Dewpoint Depression Visibility Wind Speed Wind Dir Waves Ship Positions

Medicare First Aid

Last reported at 2017-Sep-06 10:54 UTC. Time now 2017-Nov-24 15:11 UTC.
Position N 47°33' W 002°54'.
Warning: this ship's position is months out of date.

Length 12 m.

Type: Sailing vessel. MMSI: 235083873.

Date/timePositionNaut miles runAvg speedWind from/ knotsBaromVisibWave heightAir tempDewpointWater temp
2017-Sep-06 10:54N 47°33' W 002°54'2 4.0
2017-Sep-06 10:30N 47°32' W 002°55'2 4.1
2017-Sep-06 10:00N 47°31' W 002°58'2 3.4
2017-Sep-06 09:30N 47°32' W 002°60'3 6.1
2017-Sep-06 09:00N 47°29' W 002°59'3 7.1
2017-Sep-06 08:30N 47°32' W 002°55'  
2017-Aug-30 16:40N 47°33' W 002°54'0 0.0
2017-Aug-30 16:10N 47°33' W 002°54'0 1.8
2017-Aug-30 15:56N 47°32' W 002°54'2 3.7
2017-Aug-30 15:30N 47°34' W 002°54'3 4.6
2017-Aug-30 14:51N 47°36' W 002°51'0 0.0
2017-Aug-30 14:30N 47°36' W 002°51'2 4.2
2017-Aug-30 14:00N 47°35' W 002°53'1 2.9
2017-Aug-30 13:30N 47°34' W 002°55'1 2.9
2017-Aug-30 12:59N 47°32' W 002°56'3 6.6
2017-Aug-30 12:29N 47°30' W 002°59'3 6.3
2017-Aug-30 12:00N 47°28' W 003°02'2 4.4
2017-Aug-30 11:29N 47°28' W 003°05'2 3.6
2017-Aug-30 11:00N 47°28' W 003°08'2 4.2
2017-Aug-30 10:30N 47°29' W 003°11'2 3.1
2017-Aug-30 10:00N 47°30' W 003°11'2 4.5
2017-Aug-30 09:30N 47°32' W 003°14'2 4.9
2017-Aug-30 09:00N 47°34' W 003°16'3 5.4
2017-Aug-30 08:30N 47°36' W 003°19'3 5.1
2017-Aug-30 08:00N 47°37' W 003°22'3 5.3
2017-Aug-30 07:30N 47°39' W 003°25'1 0.1
2017-Aug-29 20:07N 47°39' W 003°27'0 0.0
2017-Aug-29 19:58N 47°39' W 003°27'0 0.0
2017-Aug-29 19:28N 47°39' W 003°27'0 0.0
2017-Aug-29 18:58N 47°39' W 003°27'0 0.0
2017-Aug-29 18:22N 47°39' W 003°27'0 0.0
2017-Aug-29 17:58N 47°39' W 003°27'0 0.0
2017-Aug-28 13:32N 47°39' W 003°27'0 0.1
2017-Aug-28 13:29N 47°39' W 003°27'1 1.7
2017-Aug-28 13:00N 47°39' W 003°26'2 3.1
2017-Aug-28 12:30N 47°38' W 003°25'1 1.5
2017-Aug-28 11:58N 47°37' W 003°25'1 1.2
2017-Aug-28 11:28N 47°36' W 003°24'0 1.1
2017-Aug-28 11:00N 47°36' W 003°24'2 4.4
2017-Aug-28 10:30N 47°34' W 003°25'1 1.2
2017-Aug-28 09:59N 47°33' W 003°25'0 1.0
2017-Aug-28 09:30N 47°33' W 003°25'1 2.8
2017-Aug-28 09:00N 47°31' W 003°26'2 4.2
2017-Aug-28 08:30N 47°30' W 003°24'3 5.1
2017-Aug-28 08:00N 47°28' W 003°21'3 5.8
2017-Aug-28 07:29N 47°26' W 003°18'3 5.0
2017-Aug-28 06:59N 47°24' W 003°15'2 3.0
2017-Aug-28 06:20N 47°23' W 003°13'  

Dump ship's entire track history